Bookmark and Share
Track history (hours):
 

Teruhou Maru No.22

Last reported at 2014-Apr-17 17:25 UTC. Time now 2014-Apr-17 21:48 UTC.
Position N 35°00' E 140°11'.

Length 76 m; draft 4 m.

Type: Cargo ship. MMSI: 431002552.

NotesDate/timePositionNaut miles runAvg speedWind from/ knotsBaromVisibWave heightAir tempDewpointWater temp
2014-Apr-17 17:25N 35°00' E 140°11'60 8.4
2014-Apr-17 10:15N 35°55' E 140°40'0 0.0
2014-Apr-17 09:26N 35°55' E 140°40'0 0.1
2014-Apr-17 07:21N 35°56' E 140°40'0 0.0
2014-Apr-17 04:33N 35°56' E 140°40'0 0.0
2014-Apr-17 02:13N 35°56' E 140°40'0 0.1
2014-Apr-17 01:33N 35°56' E 140°40'0 0.0
2014-Apr-17 00:33N 35°56' E 140°40'0 0.0
2014-Apr-16 22:32N 35°56' E 140°40'4 3.4
2014-Apr-16 21:20N 35°58' E 140°44'2111.5
2014-Apr-16 19:29N 35°38' E 140°52'1312.1
2014-Apr-16 18:27N 35°28' E 140°42'1212.4
2014-Apr-16 17:31N 35°19' E 140°33'2013.5
2014-Apr-16 16:03N 35°04' E 140°17'613.0
2014-Apr-16 15:33N 35°00' E 140°11'1313.0
2014-Apr-16 14:33N 34°53' E 139°57'1110.9
2014-Apr-16 13:33N 34°57' E 139°45'1212.3
2014-Apr-16 12:33N 35°09' E 139°46'1312.7
2014-Apr-16 11:34N 35°21' E 139°42'1212.1
2014-Apr-16 10:33N 35°30' E 139°52'1111.2
2014-Apr-16 09:34N 35°41' E 139°58'0 0.2
2014-Apr-16 08:34N 35°41' E 139°57'0 0.0
2014-Apr-16 07:34N 35°41' E 139°57'0 0.0
2014-Apr-16 06:33N 35°41' E 139°57'0 0.0
2014-Apr-16 05:33N 35°41' E 139°57'0 0.0
2014-Apr-16 04:33N 35°41' E 139°57'0 0.0
2014-Apr-16 03:33N 35°41' E 139°57'0 0.0
2014-Apr-16 02:33N 35°41' E 139°57'0 0.0
2014-Apr-16 01:33N 35°41' E 139°57'0 0.0
2014-Apr-16 00:33N 35°41' E 139°57'0 0.0
2014-Apr-15 23:33N 35°41' E 139°57'0 0.0
2014-Apr-15 22:33N 35°41' E 139°57'0 0.0
2014-Apr-15 21:33N 35°41' E 139°57'0 0.0
2014-Apr-15 20:33N 35°41' E 139°57'0 0.0
2014-Apr-15 19:33N 35°41' E 139°57'0 0.0
2014-Apr-15 18:33N 35°41' E 139°57'0 0.0
2014-Apr-15 17:33N 35°41' E 139°57'0 0.0
2014-Apr-15 16:33N 35°41' E 139°57'0 0.0
2014-Apr-15 15:33N 35°41' E 139°57'0 0.0
2014-Apr-15 14:33N 35°41' E 139°57'0 0.0
2014-Apr-15 12:34N 35°41' E 139°57'0 0.0
2014-Apr-15 11:34N 35°41' E 139°57'0 0.1
2014-Apr-15 10:34N 35°41' E 139°57'0 0.1
2014-Apr-15 09:34N 35°41' E 139°57'0 0.0
2014-Apr-15 08:34N 35°41' E 139°57'0 0.0
2014-Apr-15 07:34N 35°41' E 139°57'0 0.0
2014-Apr-15 06:34N 35°41' E 139°57'0 0.0
2014-Apr-15 05:34N 35°41' E 139°57'3 1.3
2014-Apr-15 03:34N 35°38' E 139°58'2 2.1
2014-Apr-15 02:34N 35°36' E 139°58'0 0.0
2014-Apr-15 01:34N 35°36' E 139°58'0 0.0
2014-Apr-15 00:34N 35°36' E 139°58'0 0.0
2014-Apr-14 23:34N 35°36' E 139°58'0 0.1
2014-Apr-14 22:34N 35°36' E 139°58'0 0.0
2014-Apr-14 21:34N 35°36' E 139°58'0 0.0
2014-Apr-14 20:34N 35°36' E 139°58'0 0.0
2014-Apr-14 19:34N 35°36' E 139°58'0 0.0
2014-Apr-14 18:33N 35°36' E 139°58'0 0.0
2014-Apr-14 17:33N 35°36' E 139°58'0 0.0
2014-Apr-14 16:34N 35°36' E 139°58'0 0.0
2014-Apr-14 15:34N 35°36' E 139°58'0 0.1
2014-Apr-14 14:33N 35°36' E 139°58'1111.1
2014-Apr-14 13:34N 35°27' E 139°50'2211.1
2014-Apr-14 11:34N 35°06' E 139°44'1312.4
2014-Apr-14 10:32N 34°58' E 139°32'  
2014-Apr-09 16:31N 34°10' E 134°58'1212.5
2014-Apr-09 15:32N 34°22' E 135°00'1212.3
2014-Apr-09 14:33N 34°34' E 135°03'1311.7
2014-Apr-09 13:26N 34°40' E 134°49'5 0.3
2014-Apr-08 21:24N 34°37' E 134°54'1011.6
2014-Apr-08 20:33N 34°34' E 135°05'1313.0
2014-Apr-08 19:34N 34°21' E 135°01'  

Dump ship's entire track history

sailing weather and tide predictions

Teruhou Maru No.22 — JD3202 — position and weather